sensor_id;sensor_type;location;lat;lon;timestamp;temperature;humidity
12833;DHT22;6483;51.310;4.462;2023-04-25T00:02:23;5.40;99.90
12833;DHT22;6483;51.310;4.462;2023-04-25T00:04:50;5.40;99.90
12833;DHT22;6483;51.310;4.462;2023-04-25T00:07:15;5.30;99.90
12833;DHT22;6483;51.310;4.462;2023-04-25T00:09:42;5.40;99.90
12833;DHT22;6483;51.310;4.462;2023-04-25T00:12:09;5.30;99.90
12833;DHT22;6483;51.310;4.462;2023-04-25T00:14:38;5.40;99.90
12833;DHT22;6483;51.310;4.462;2023-04-25T00:17:05;5.30;99.90
12833;DHT22;6483;51.310;4.462;2023-04-25T00:19:31;5.40;99.90
12833;DHT22;6483;51.310;4.462;2023-04-25T00:22:00;5.60;99.90
12833;DHT22;6483;51.310;4.462;2023-04-25T00:24:29;5.70;99.90
12833;DHT22;6483;51.310;4.462;2023-04-25T00:26:57;5.70;99.90
12833;DHT22;6483;51.310;4.462;2023-04-25T00:29:24;5.60;99.90
12833;DHT22;6483;51.310;4.462;2023-04-25T00:31:53;5.60;99.90
12833;DHT22;6483;51.310;4.462;2023-04-25T00:34:18;5.70;99.90
12833;DHT22;6483;51.310;4.462;2023-04-25T00:36:44;5.70;99.90
12833;DHT22;6483;51.310;4.462;2023-04-25T00:39:12;5.60;99.90
12833;DHT22;6483;51.310;4.462;2023-04-25T00:41:38;5.60;99.90
12833;DHT22;6483;51.310;4.462;2023-04-25T00:44:05;5.60;99.90
12833;DHT22;6483;51.310;4.462;2023-04-25T00:46:35;5.70;99.90
12833;DHT22;6483;51.310;4.462;2023-04-25T00:49:01;5.80;99.90
12833;DHT22;6483;51.310;4.462;2023-04-25T00:51:27;5.80;99.90
12833;DHT22;6483;51.310;4.462;2023-04-25T00:53:53;5.80;99.90
12833;DHT22;6483;51.310;4.462;2023-04-25T00:56:21;5.90;99.90
12833;DHT22;6483;51.310;4.462;2023-04-25T00:58:48;5.90;99.90
12833;DHT22;6483;51.310;4.462;2023-04-25T01:01:13;5.90;99.90
12833;DHT22;6483;51.310;4.462;2023-04-25T01:03:39;6.00;99.90
12833;DHT22;6483;51.310;4.462;2023-04-25T01:06:17;6.00;99.90
12833;DHT22;6483;51.310;4.462;2023-04-25T01:08:45;6.00;99.90
12833;DHT22;6483;51.310;4.462;2023-04-25T01:11:11;6.10;99.90
12833;DHT22;6483;51.310;4.462;2023-04-25T01:13:46;6.10;99.90
12833;DHT22;6483;51.310;4.462;2023-04-25T01:16:15;6.20;99.90
12833;DHT22;6483;51.310;4.462;2023-04-25T01:18:41;6.30;99.90
12833;DHT22;6483;51.310;4.462;2023-04-25T01:21:11;6.30;99.90
12833;DHT22;6483;51.310;4.462;2023-04-25T01:23:39;6.30;99.90
12833;DHT22;6483;51.310;4.462;2023-04-25T01:26:12;6.30;99.90
12833;DHT22;6483;51.310;4.462;2023-04-25T01:28:38;6.30;99.90
12833;DHT22;6483;51.310;4.462;2023-04-25T01:31:11;6.40;99.90
12833;DHT22;6483;51.310;4.462;2023-04-25T01:33:37;6.40;99.90
12833;DHT22;6483;51.310;4.462;2023-04-25T01:36:06;6.40;99.90
12833;DHT22;6483;51.310;4.462;2023-04-25T01:38:36;6.40;99.90
12833;DHT22;6483;51.310;4.462;2023-04-25T01:41:01;6.40;99.90
12833;DHT22;6483;51.310;4.462;2023-04-25T01:43:28;6.50;99.90
12833;DHT22;6483;51.310;4.462;2023-04-25T01:45:54;6.50;99.90
12833;DHT22;6483;51.310;4.462;2023-04-25T01:48:21;6.50;99.90
12833;DHT22;6483;51.310;4.462;2023-04-25T01:50:46;6.60;99.90
12833;DHT22;6483;51.310;4.462;2023-04-25T01:53:13;6.80;99.90
12833;DHT22;6483;51.310;4.462;2023-04-25T01:55:42;6.70;99.90
12833;DHT22;6483;51.310;4.462;2023-04-25T01:58:09;6.70;99.90
12833;DHT22;6483;51.310;4.462;2023-04-25T02:00:36;6.70;99.90
12833;DHT22;6483;51.310;4.462;2023-04-25T02:03:04;6.70;99.90
12833;DHT22;6483;51.310;4.462;2023-04-25T02:05:38;6.70;99.90
12833;DHT22;6483;51.310;4.462;2023-04-25T02:08:05;6.70;99.90
12833;DHT22;6483;51.310;4.462;2023-04-25T02:10:34;6.80;99.90
12833;DHT22;6483;51.310;4.462;2023-04-25T02:13:01;6.70;99.90
12833;DHT22;6483;51.310;4.462;2023-04-25T02:15:28;6.70;99.90
12833;DHT22;6483;51.310;4.462;2023-04-25T02:18:00;6.80;99.90
12833;DHT22;6483;51.310;4.462;2023-04-25T02:20:27;6.70;99.90
12833;DHT22;6483;51.310;4.462;2023-04-25T02:22:54;6.70;99.90
12833;DHT22;6483;51.310;4.462;2023-04-25T02:25:23;6.70;99.90
12833;DHT22;6483;51.310;4.462;2023-04-25T02:27:52;6.70;99.90
12833;DHT22;6483;51.310;4.462;2023-04-25T02:30:18;6.70;99.90
12833;DHT22;6483;51.310;4.462;2023-04-25T02:32:46;6.70;99.90
12833;DHT22;6483;51.310;4.462;2023-04-25T02:35:12;6.70;99.90
12833;DHT22;6483;51.310;4.462;2023-04-25T02:37:39;6.70;99.90
12833;DHT22;6483;51.310;4.462;2023-04-25T02:40:07;6.70;99.90
12833;DHT22;6483;51.310;4.462;2023-04-25T02:42:33;6.70;99.90
12833;DHT22;6483;51.310;4.462;2023-04-25T02:44:59;6.60;99.90
12833;DHT22;6483;51.310;4.462;2023-04-25T02:47:28;6.70;99.90
12833;DHT22;6483;51.310;4.462;2023-04-25T02:49:54;6.60;99.90
12833;DHT22;6483;51.310;4.462;2023-04-25T02:52:20;6.60;99.90
12833;DHT22;6483;51.310;4.462;2023-04-25T02:54:49;6.50;99.90
12833;DHT22;6483;51.310;4.462;2023-04-25T02:57:15;6.50;99.90
12833;DHT22;6483;51.310;4.462;2023-04-25T02:59:40;6.50;99.90
12833;DHT22;6483;51.310;4.462;2023-04-25T03:02:06;6.50;99.90
12833;DHT22;6483;51.310;4.462;2023-04-25T03:04:31;6.50;99.90
12833;DHT22;6483;51.310;4.462;2023-04-25T03:07:01;6.50;99.90
12833;DHT22;6483;51.310;4.462;2023-04-25T03:09:27;6.50;99.90
12833;DHT22;6483;51.310;4.462;2023-04-25T03:11:53;6.50;99.90
12833;DHT22;6483;51.310;4.462;2023-04-25T03:14:19;6.50;99.90
12833;DHT22;6483;51.310;4.462;2023-04-25T03:16:45;6.50;99.90
12833;DHT22;6483;51.310;4.462;2023-04-25T03:19:14;6.50;99.90
12833;DHT22;6483;51.310;4.462;2023-04-25T03:21:41;6.50;99.90
12833;DHT22;6483;51.310;4.462;2023-04-25T03:24:13;6.60;99.90
12833;DHT22;6483;51.310;4.462;2023-04-25T03:26:39;6.60;99.90
12833;DHT22;6483;51.310;4.462;2023-04-25T03:29:07;6.70;99.90
12833;DHT22;6483;51.310;4.462;2023-04-25T03:31:33;6.70;99.90
12833;DHT22;6483;51.310;4.462;2023-04-25T03:34:01;6.60;99.90
12833;DHT22;6483;51.310;4.462;2023-04-25T03:36:29;6.70;99.90
12833;DHT22;6483;51.310;4.462;2023-04-25T03:38:56;6.60;99.90
12833;DHT22;6483;51.310;4.462;2023-04-25T03:41:21;6.60;99.90
12833;DHT22;6483;51.310;4.462;2023-04-25T03:43:47;6.60;99.90
12833;DHT22;6483;51.310;4.462;2023-04-25T03:46:13;6.50;99.90
12833;DHT22;6483;51.310;4.462;2023-04-25T03:48:38;6.50;99.90
12833;DHT22;6483;51.310;4.462;2023-04-25T03:51:07;6.50;99.90
12833;DHT22;6483;51.310;4.462;2023-04-25T03:53:34;6.50;99.90
12833;DHT22;6483;51.310;4.462;2023-04-25T03:56:00;6.50;99.90
12833;DHT22;6483;51.310;4.462;2023-04-25T03:58:26;6.40;99.90
12833;DHT22;6483;51.310;4.462;2023-04-25T04:00:51;6.30;99.90
12833;DHT22;6483;51.310;4.462;2023-04-25T04:03:17;6.30;99.90
12833;DHT22;6483;51.310;4.462;2023-04-25T04:05:45;6.30;99.90
12833;DHT22;6483;51.310;4.462;2023-04-25T04:08:13;6.40;99.90
12833;DHT22;6483;51.310;4.462;2023-04-25T04:10:38;6.30;99.90
12833;DHT22;6483;51.310;4.462;2023-04-25T04:13:04;6.30;99.90
12833;DHT22;6483;51.310;4.462;2023-04-25T04:15:33;6.20;99.90
12833;DHT22;6483;51.310;4.462;2023-04-25T04:17:59;6.30;99.90
12833;DHT22;6483;51.310;4.462;2023-04-25T04:20:48;6.30;99.90
12833;DHT22;6483;51.310;4.462;2023-04-25T04:23:19;6.30;99.90
12833;DHT22;6483;51.310;4.462;2023-04-25T04:25:46;6.30;99.90
12833;DHT22;6483;51.310;4.462;2023-04-25T04:28:13;6.60;99.90
12833;DHT22;6483;51.310;4.462;2023-04-25T04:30:39;6.30;99.90
12833;DHT22;6483;51.310;4.462;2023-04-25T04:33:07;6.40;99.90
12833;DHT22;6483;51.310;4.462;2023-04-25T04:35:33;6.50;99.90
12833;DHT22;6483;51.310;4.462;2023-04-25T04:38:00;6.50;99.90
12833;DHT22;6483;51.310;4.462;2023-04-25T04:40:25;6.50;99.90
12833;DHT22;6483;51.310;4.462;2023-04-25T04:42:51;6.50;99.90
12833;DHT22;6483;51.310;4.462;2023-04-25T04:45:18;6.50;99.90
12833;DHT22;6483;51.310;4.462;2023-04-25T04:47:47;6.60;99.90
12833;DHT22;6483;51.310;4.462;2023-04-25T04:50:13;6.60;99.90
12833;DHT22;6483;51.310;4.462;2023-04-25T04:52:40;6.70;99.90
12833;DHT22;6483;51.310;4.462;2023-04-25T04:55:06;6.70;99.90
12833;DHT22;6483;51.310;4.462;2023-04-25T04:57:36;6.70;99.90
12833;DHT22;6483;51.310;4.462;2023-04-25T05:00:05;6.70;99.90
12833;DHT22;6483;51.310;4.462;2023-04-25T05:02:42;6.70;99.90
12833;DHT22;6483;51.310;4.462;2023-04-25T05:05:11;6.70;99.90
12833;DHT22;6483;51.310;4.462;2023-04-25T05:07:37;6.80;99.90
12833;DHT22;6483;51.310;4.462;2023-04-25T05:10:07;6.90;99.90
12833;DHT22;6483;51.310;4.462;2023-04-25T05:12:33;7.00;99.90
12833;DHT22;6483;51.310;4.462;2023-04-25T05:14:59;7.00;99.90
12833;DHT22;6483;51.310;4.462;2023-04-25T05:17:25;7.00;99.90
12833;DHT22;6483;51.310;4.462;2023-04-25T05:19:58;7.00;99.90
12833;DHT22;6483;51.310;4.462;2023-04-25T05:22:23;7.00;99.90
12833;DHT22;6483;51.310;4.462;2023-04-25T05:24:49;7.10;99.90
12833;DHT22;6483;51.310;4.462;2023-04-25T05:27:26;7.20;99.90
12833;DHT22;6483;51.310;4.462;2023-04-25T05:29:52;7.20;99.90
12833;DHT22;6483;51.310;4.462;2023-04-25T05:32:21;7.40;99.90
12833;DHT22;6483;51.310;4.462;2023-04-25T05:34:46;7.50;99.90
12833;DHT22;6483;51.310;4.462;2023-04-25T05:37:12;7.60;99.90
12833;DHT22;6483;51.310;4.462;2023-04-25T05:39:40;7.70;99.90
12833;DHT22;6483;51.310;4.462;2023-04-25T05:42:06;7.90;99.90
12833;DHT22;6483;51.310;4.462;2023-04-25T05:44:31;8.00;99.90
12833;DHT22;6483;51.310;4.462;2023-04-25T05:46:57;8.20;99.90
12833;DHT22;6483;51.310;4.462;2023-04-25T05:49:29;8.30;99.90
12833;DHT22;6483;51.310;4.462;2023-04-25T05:51:54;8.30;99.90
12833;DHT22;6483;51.310;4.462;2023-04-25T05:54:20;8.30;99.90
12833;DHT22;6483;51.310;4.462;2023-04-25T05:56:46;8.30;99.90
12833;DHT22;6483;51.310;4.462;2023-04-25T05:59:11;8.30;99.90
12833;DHT22;6483;51.310;4.462;2023-04-25T06:01:37;8.30;99.90
12833;DHT22;6483;51.310;4.462;2023-04-25T06:04:04;8.10;99.90
12833;DHT22;6483;51.310;4.462;2023-04-25T06:06:29;8.00;99.90
12833;DHT22;6483;51.310;4.462;2023-04-25T06:08:55;7.90;99.90
12833;DHT22;6483;51.310;4.462;2023-04-25T06:11:22;7.80;99.90
12833;DHT22;6483;51.310;4.462;2023-04-25T06:13:48;7.80;99.90
12833;DHT22;6483;51.310;4.462;2023-04-25T06:16:14;7.90;99.90
12833;DHT22;6483;51.310;4.462;2023-04-25T06:18:40;7.90;99.90
12833;DHT22;6483;51.310;4.462;2023-04-25T06:21:06;7.90;99.90
12833;DHT22;6483;51.310;4.462;2023-04-25T06:23:32;8.00;99.90
12833;DHT22;6483;51.310;4.462;2023-04-25T06:25:57;8.10;99.90
12833;DHT22;6483;51.310;4.462;2023-04-25T06:28:23;8.30;99.90
12833;DHT22;6483;51.310;4.462;2023-04-25T06:30:50;8.50;99.90
12833;DHT22;6483;51.310;4.462;2023-04-25T06:33:15;8.60;99.90
12833;DHT22;6483;51.310;4.462;2023-04-25T06:35:41;8.90;99.90
12833;DHT22;6483;51.310;4.462;2023-04-25T06:38:07;9.10;99.90
12833;DHT22;6483;51.310;4.462;2023-04-25T06:40:33;9.40;68.30
12833;DHT22;6483;51.310;4.462;2023-04-25T06:42:58;9.40;46.40
12833;DHT22;6483;51.310;4.462;2023-04-25T06:45:24;9.50;64.20
12833;DHT22;6483;51.310;4.462;2023-04-25T06:47:50;9.60;48.60
12833;DHT22;6483;51.310;4.462;2023-04-25T06:50:16;9.70;40.20
12833;DHT22;6483;51.310;4.462;2023-04-25T06:52:41;9.80;41.10
12833;DHT22;6483;51.310;4.462;2023-04-25T06:55:07;9.80;29.40
12833;DHT22;6483;51.310;4.462;2023-04-25T06:57:33;10.00;30.80
12833;DHT22;6483;51.310;4.462;2023-04-25T07:00:03;10.00;25.50
12833;DHT22;6483;51.310;4.462;2023-04-25T07:02:30;9.80;31.10
12833;DHT22;6483;51.310;4.462;2023-04-25T07:04:59;9.70;37.10
12833;DHT22;6483;51.310;4.462;2023-04-25T07:07:26;9.40;42.10
12833;DHT22;6483;51.310;4.462;2023-04-25T07:09:52;9.50;41.60
12833;DHT22;6483;51.310;4.462;2023-04-25T07:12:17;9.40;53.00
12833;DHT22;6483;51.310;4.462;2023-04-25T07:14:43;9.40;74.70
12833;DHT22;6483;51.310;4.462;2023-04-25T07:17:09;9.50;58.70
12833;DHT22;6483;51.310;4.462;2023-04-25T07:19:35;9.50;62.60
12833;DHT22;6483;51.310;4.462;2023-04-25T07:22:02;9.40;53.50
12833;DHT22;6483;51.310;4.462;2023-04-25T07:24:27;9.40;72.10
12833;DHT22;6483;51.310;4.462;2023-04-25T07:26:53;9.40;57.70
12833;DHT22;6483;51.310;4.462;2023-04-25T07:29:19;9.50;73.10
12833;DHT22;6483;51.310;4.462;2023-04-25T07:31:48;9.50;44.90
12833;DHT22;6483;51.310;4.462;2023-04-25T07:34:14;9.70;58.40
12833;DHT22;6483;51.310;4.462;2023-04-25T07:36:39;10.00;40.00
12833;DHT22;6483;51.310;4.462;2023-04-25T07:39:09;10.10;24.00
12833;DHT22;6483;51.310;4.462;2023-04-25T07:41:36;10.30;33.20
12833;DHT22;6483;51.310;4.462;2023-04-25T07:44:02;10.50;16.70
12833;DHT22;6483;51.310;4.462;2023-04-25T07:46:28;10.50;4.70
12833;DHT22;6483;51.310;4.462;2023-04-25T07:48:53;10.40;6.00
12833;DHT22;6483;51.310;4.462;2023-04-25T07:51:19;10.10;8.30
12833;DHT22;6483;51.310;4.462;2023-04-25T07:53:45;9.80;32.10
12833;DHT22;6483;51.310;4.462;2023-04-25T07:56:14;9.50;51.90
12833;DHT22;6483;51.310;4.462;2023-04-25T07:58:40;9.50;64.30
12833;DHT22;6483;51.310;4.462;2023-04-25T08:01:06;9.20;79.10
12833;DHT22;6483;51.310;4.462;2023-04-25T08:03:31;9.20;91.30
12833;DHT22;6483;51.310;4.462;2023-04-25T08:05:57;9.30;76.50
12833;DHT22;6483;51.310;4.462;2023-04-25T08:08:23;9.20;61.60
12833;DHT22;6483;51.310;4.462;2023-04-25T08:10:52;9.30;62.30
12833;DHT22;6483;51.310;4.462;2023-04-25T08:13:18;9.40;71.10
12833;DHT22;6483;51.310;4.462;2023-04-25T08:15:44;9.50;64.60
12833;DHT22;6483;51.310;4.462;2023-04-25T08:18:10;9.70;58.40
12833;DHT22;6483;51.310;4.462;2023-04-25T08:20:36;9.90;45.50
12833;DHT22;6483;51.310;4.462;2023-04-25T08:23:04;10.10;22.50
12833;DHT22;6483;51.310;4.462;2023-04-25T08:25:30;10.40;24.30
12833;DHT22;6483;51.310;4.462;2023-04-25T08:27:56;10.60;8.20
12833;DHT22;6483;51.310;4.462;2023-04-25T08:30:22;10.80;10.70
12833;DHT22;6483;51.310;4.462;2023-04-25T08:32:48;11.00;9.90
12833;DHT22;6483;51.310;4.462;2023-04-25T08:35:14;11.10;3.00
12833;DHT22;6483;51.310;4.462;2023-04-25T08:37:44;11.30;2.20
12833;DHT22;6483;51.310;4.462;2023-04-25T08:40:14;11.60;4.20
12833;DHT22;6483;51.310;4.462;2023-04-25T08:42:41;12.60;1.00
12833;DHT22;6483;51.310;4.462;2023-04-25T08:45:10;12.50;1.00
12833;DHT22;6483;51.310;4.462;2023-04-25T08:47:38;12.40;1.00
12833;DHT22;6483;51.310;4.462;2023-04-25T08:50:05;13.00;1.00
12833;DHT22;6483;51.310;4.462;2023-04-25T08:52:44;14.80;1.00
12833;DHT22;6483;51.310;4.462;2023-04-25T08:55:14;15.60;1.00
12833;DHT22;6483;51.310;4.462;2023-04-25T08:57:42;15.60;1.00
12833;DHT22;6483;51.310;4.462;2023-04-25T09:00:12;15.40;1.00
12833;DHT22;6483;51.310;4.462;2023-04-25T09:02:42;15.00;1.00
12833;DHT22;6483;51.310;4.462;2023-04-25T09:05:10;14.40;1.00
12833;DHT22;6483;51.310;4.462;2023-04-25T09:07:37;14.00;1.00
12833;DHT22;6483;51.310;4.462;2023-04-25T09:10:07;14.00;1.00
12833;DHT22;6483;51.310;4.462;2023-04-25T09:12:32;13.60;1.00
12833;DHT22;6483;51.310;4.462;2023-04-25T09:15:09;13.30;1.00
12833;DHT22;6483;51.310;4.462;2023-04-25T09:17:35;14.10;1.00
12833;DHT22;6483;51.310;4.462;2023-04-25T09:20:08;15.90;1.00
12833;DHT22;6483;51.310;4.462;2023-04-25T09:22:40;17.20;1.00
12833;DHT22;6483;51.310;4.462;2023-04-25T09:25:16;17.10;1.00
12833;DHT22;6483;51.310;4.462;2023-04-25T09:27:53;18.00;1.00
12833;DHT22;6483;51.310;4.462;2023-04-25T09:30:29;18.00;1.00
12833;DHT22;6483;51.310;4.462;2023-04-25T09:33:05;16.60;1.00
12833;DHT22;6483;51.310;4.462;2023-04-25T09:35:52;15.90;1.00
12833;DHT22;6483;51.310;4.462;2023-04-25T09:38:21;16.20;1.00
12833;DHT22;6483;51.310;4.462;2023-04-25T09:40:47;16.00;1.00
12833;DHT22;6483;51.310;4.462;2023-04-25T09:43:25;15.40;1.00
12833;DHT22;6483;51.310;4.462;2023-04-25T09:46:01;16.30;1.00
12833;DHT22;6483;51.310;4.462;2023-04-25T09:48:28;16.00;1.00
12833;DHT22;6483;51.310;4.462;2023-04-25T09:51:08;14.60;1.00
12833;DHT22;6483;51.310;4.462;2023-04-25T09:53:38;13.10;1.00
12833;DHT22;6483;51.310;4.462;2023-04-25T09:56:07;14.00;1.00
12833;DHT22;6483;51.310;4.462;2023-04-25T09:58:34;13.90;1.00
12833;DHT22;6483;51.310;4.462;2023-04-25T10:01:20;13.90;1.00
12833;DHT22;6483;51.310;4.462;2023-04-25T10:03:56;13.50;1.00
12833;DHT22;6483;51.310;4.462;2023-04-25T10:06:24;12.70;1.00
12833;DHT22;6483;51.310;4.462;2023-04-25T10:08:52;12.40;1.00
12833;DHT22;6483;51.310;4.462;2023-04-25T10:11:22;12.40;1.00
12833;DHT22;6483;51.310;4.462;2023-04-25T10:13:50;12.60;1.00
12833;DHT22;6483;51.310;4.462;2023-04-25T10:16:16;13.00;1.00
12833;DHT22;6483;51.310;4.462;2023-04-25T10:18:41;12.90;1.00
12833;DHT22;6483;51.310;4.462;2023-04-25T10:21:07;12.70;1.00
12833;DHT22;6483;51.310;4.462;2023-04-25T10:23:33;13.00;1.00
12833;DHT22;6483;51.310;4.462;2023-04-25T10:26:00;14.30;1.00
12833;DHT22;6483;51.310;4.462;2023-04-25T10:28:29;15.90;1.00
12833;DHT22;6483;51.310;4.462;2023-04-25T10:31:18;16.40;1.00
12833;DHT22;6483;51.310;4.462;2023-04-25T10:33:51;15.80;1.00
12833;DHT22;6483;51.310;4.462;2023-04-25T10:36:21;15.00;1.00
12833;DHT22;6483;51.310;4.462;2023-04-25T10:38:49;14.80;1.00
12833;DHT22;6483;51.310;4.462;2023-04-25T10:41:24;14.90;1.00
12833;DHT22;6483;51.310;4.462;2023-04-25T10:43:59;14.40;1.00
12833;DHT22;6483;51.310;4.462;2023-04-25T10:46:28;15.20;1.00
12833;DHT22;6483;51.310;4.462;2023-04-25T10:48:58;14.70;1.00
12833;DHT22;6483;51.310;4.462;2023-04-25T10:51:25;15.40;1.00
12833;DHT22;6483;51.310;4.462;2023-04-25T10:56:28;16.40;1.00
12833;DHT22;6483;51.310;4.462;2023-04-25T10:59:11;14.60;1.00
12833;DHT22;6483;51.310;4.462;2023-04-25T11:01:42;13.20;1.00
12833;DHT22;6483;51.310;4.462;2023-04-25T11:04:32;12.40;1.00
12833;DHT22;6483;51.310;4.462;2023-04-25T11:09:41;11.70;1.00
12833;DHT22;6483;51.310;4.462;2023-04-25T11:12:12;11.80;1.00
12833;DHT22;6483;51.310;4.462;2023-04-25T11:14:39;11.80;1.00
12833;DHT22;6483;51.310;4.462;2023-04-25T11:17:05;14.20;1.00
12833;DHT22;6483;51.310;4.462;2023-04-25T11:19:35;17.20;1.00
12833;DHT22;6483;51.310;4.462;2023-04-25T11:22:03;17.80;1.00
12833;DHT22;6483;51.310;4.462;2023-04-25T11:24:30;16.60;1.00
12833;DHT22;6483;51.310;4.462;2023-04-25T11:27:01;15.70;1.00
12833;DHT22;6483;51.310;4.462;2023-04-25T11:29:31;15.10;1.00
12833;DHT22;6483;51.310;4.462;2023-04-25T11:31:58;15.20;1.00
12833;DHT22;6483;51.310;4.462;2023-04-25T11:34:24;14.60;1.00
12833;DHT22;6483;51.310;4.462;2023-04-25T11:36:53;13.80;1.00
12833;DHT22;6483;51.310;4.462;2023-04-25T11:39:20;13.20;1.00
12833;DHT22;6483;51.310;4.462;2023-04-25T11:41:46;13.10;1.00
12833;DHT22;6483;51.310;4.462;2023-04-25T11:44:16;13.50;1.00
12833;DHT22;6483;51.310;4.462;2023-04-25T11:46:43;15.60;1.00
12833;DHT22;6483;51.310;4.462;2023-04-25T11:49:11;16.50;1.00
12833;DHT22;6483;51.310;4.462;2023-04-25T11:51:40;17.90;1.00
12833;DHT22;6483;51.310;4.462;2023-04-25T11:54:06;19.70;1.00
12833;DHT22;6483;51.310;4.462;2023-04-25T11:56:33;19.90;1.00
12833;DHT22;6483;51.310;4.462;2023-04-25T11:59:01;19.60;1.00
12833;DHT22;6483;51.310;4.462;2023-04-25T12:01:39;18.80;1.00
12833;DHT22;6483;51.310;4.462;2023-04-25T12:04:19;20.30;1.00
12833;DHT22;6483;51.310;4.462;2023-04-25T12:06:47;22.30;1.00
12833;DHT22;6483;51.310;4.462;2023-04-25T12:09:15;21.80;1.00
12833;DHT22;6483;51.310;4.462;2023-04-25T12:11:58;21.10;1.00
12833;DHT22;6483;51.310;4.462;2023-04-25T12:14:29;19.60;1.00
12833;DHT22;6483;51.310;4.462;2023-04-25T12:16:57;19.70;1.00
12833;DHT22;6483;51.310;4.462;2023-04-25T12:19:23;19.40;1.00
12833;DHT22;6483;51.310;4.462;2023-04-25T12:21:50;19.80;1.00
12833;DHT22;6483;51.310;4.462;2023-04-25T12:24:24;19.10;1.00
12833;DHT22;6483;51.310;4.462;2023-04-25T12:27:06;18.70;1.00
12833;DHT22;6483;51.310;4.462;2023-04-25T12:29:34;19.80;1.00
12833;DHT22;6483;51.310;4.462;2023-04-25T12:32:00;19.30;1.00
12833;DHT22;6483;51.310;4.462;2023-04-25T12:34:29;17.80;1.00
12833;DHT22;6483;51.310;4.462;2023-04-25T12:37:01;16.10;1.00
12833;DHT22;6483;51.310;4.462;2023-04-25T12:39:30;14.80;1.00
12833;DHT22;6483;51.310;4.462;2023-04-25T12:41:55;14.00;1.00
12833;DHT22;6483;51.310;4.462;2023-04-25T12:44:25;13.10;1.00
12833;DHT22;6483;51.310;4.462;2023-04-25T12:46:55;12.50;1.00
12833;DHT22;6483;51.310;4.462;2023-04-25T12:49:21;12.10;1.00
12833;DHT22;6483;51.310;4.462;2023-04-25T12:51:46;12.00;1.00
12833;DHT22;6483;51.310;4.462;2023-04-25T12:54:12;12.10;1.00
12833;DHT22;6483;51.310;4.462;2023-04-25T12:56:41;12.60;1.00
12833;DHT22;6483;51.310;4.462;2023-04-25T12:59:16;13.50;1.00
12833;DHT22;6483;51.310;4.462;2023-04-25T13:01:42;16.30;1.00
12833;DHT22;6483;51.310;4.462;2023-04-25T13:04:08;17.00;1.00
12833;DHT22;6483;51.310;4.462;2023-04-25T13:06:33;16.00;1.00
12833;DHT22;6483;51.310;4.462;2023-04-25T13:08:59;16.10;1.00
12833;DHT22;6483;51.310;4.462;2023-04-25T13:11:25;15.20;1.00
12833;DHT22;6483;51.310;4.462;2023-04-25T13:13:51;14.70;1.00
12833;DHT22;6483;51.310;4.462;2023-04-25T13:16:17;13.90;1.00
12833;DHT22;6483;51.310;4.462;2023-04-25T13:18:47;13.20;1.00
12833;DHT22;6483;51.310;4.462;2023-04-25T13:21:13;13.00;1.00
12833;DHT22;6483;51.310;4.462;2023-04-25T13:23:40;12.70;1.00
12833;DHT22;6483;51.310;4.462;2023-04-25T13:26:07;12.80;1.00
12833;DHT22;6483;51.310;4.462;2023-04-25T13:28:32;16.30;1.00
12833;DHT22;6483;51.310;4.462;2023-04-25T13:30:58;19.10;1.00
12833;DHT22;6483;51.310;4.462;2023-04-25T13:33:24;20.10;1.00
12833;DHT22;6483;51.310;4.462;2023-04-25T13:35:51;20.10;1.00
12833;DHT22;6483;51.310;4.462;2023-04-25T13:38:24;18.90;1.00
12833;DHT22;6483;51.310;4.462;2023-04-25T13:40:51;18.70;1.00
12833;DHT22;6483;51.310;4.462;2023-04-25T13:43:27;18.20;1.00
12833;DHT22;6483;51.310;4.462;2023-04-25T13:45:52;18.30;1.00
12833;DHT22;6483;51.310;4.462;2023-04-25T13:48:18;21.10;1.00
12833;DHT22;6483;51.310;4.462;2023-04-25T13:50:45;22.90;1.00
12833;DHT22;6483;51.310;4.462;2023-04-25T13:53:10;22.00;1.00
12833;DHT22;6483;51.310;4.462;2023-04-25T13:55:37;22.40;1.00
12833;DHT22;6483;51.310;4.462;2023-04-25T13:58:04;22.00;1.00
12833;DHT22;6483;51.310;4.462;2023-04-25T14:00:34;21.40;1.00
12833;DHT22;6483;51.310;4.462;2023-04-25T14:03:00;21.70;1.00
12833;DHT22;6483;51.310;4.462;2023-04-25T14:05:29;22.90;1.00
12833;DHT22;6483;51.310;4.462;2023-04-25T14:07:54;23.30;1.00
12833;DHT22;6483;51.310;4.462;2023-04-25T14:10:21;25.00;1.00
12833;DHT22;6483;51.310;4.462;2023-04-25T14:12:49;23.80;1.00
12833;DHT22;6483;51.310;4.462;2023-04-25T14:15:15;20.40;1.00
12833;DHT22;6483;51.310;4.462;2023-04-25T14:17:41;19.00;1.00
12833;DHT22;6483;51.310;4.462;2023-04-25T14:20:10;18.90;1.00
12833;DHT22;6483;51.310;4.462;2023-04-25T14:22:36;18.40;1.00
12833;DHT22;6483;51.310;4.462;2023-04-25T14:25:06;19.30;1.00
12833;DHT22;6483;51.310;4.462;2023-04-25T14:27:35;19.30;1.00
12833;DHT22;6483;51.310;4.462;2023-04-25T14:30:01;17.90;1.00
12833;DHT22;6483;51.310;4.462;2023-04-25T14:32:27;16.20;1.00
12833;DHT22;6483;51.310;4.462;2023-04-25T14:34:55;15.90;1.00
12833;DHT22;6483;51.310;4.462;2023-04-25T14:37:24;15.50;1.00
12833;DHT22;6483;51.310;4.462;2023-04-25T14:39:52;17.30;1.00
12833;DHT22;6483;51.310;4.462;2023-04-25T14:42:18;19.60;1.00
12833;DHT22;6483;51.310;4.462;2023-04-25T14:44:48;19.40;1.00
12833;DHT22;6483;51.310;4.462;2023-04-25T14:47:15;18.10;1.00
12833;DHT22;6483;51.310;4.462;2023-04-25T14:49:44;17.30;1.00
12833;DHT22;6483;51.310;4.462;2023-04-25T14:52:12;17.20;1.00
12833;DHT22;6483;51.310;4.462;2023-04-25T14:54:38;16.00;1.00
12833;DHT22;6483;51.310;4.462;2023-04-25T14:57:04;15.30;1.00
12833;DHT22;6483;51.310;4.462;2023-04-25T14:59:29;14.90;1.00
12833;DHT22;6483;51.310;4.462;2023-04-25T15:01:58;15.60;1.00
12833;DHT22;6483;51.310;4.462;2023-04-25T15:04:24;17.10;1.00
12833;DHT22;6483;51.310;4.462;2023-04-25T15:06:50;17.00;1.00
12833;DHT22;6483;51.310;4.462;2023-04-25T15:09:16;18.40;1.00
12833;DHT22;6483;51.310;4.462;2023-04-25T15:11:45;17.10;1.00
12833;DHT22;6483;51.310;4.462;2023-04-25T15:14:11;15.80;1.00
12833;DHT22;6483;51.310;4.462;2023-04-25T15:16:36;15.00;1.00
12833;DHT22;6483;51.310;4.462;2023-04-25T15:19:02;15.40;1.00
12833;DHT22;6483;51.310;4.462;2023-04-25T15:21:31;16.30;1.00
12833;DHT22;6483;51.310;4.462;2023-04-25T15:23:58;17.50;1.00
12833;DHT22;6483;51.310;4.462;2023-04-25T15:26:24;18.40;1.00
12833;DHT22;6483;51.310;4.462;2023-04-25T15:28:49;18.90;1.00
12833;DHT22;6483;51.310;4.462;2023-04-25T15:31:21;19.50;1.00
12833;DHT22;6483;51.310;4.462;2023-04-25T15:34:06;19.20;1.00
12833;DHT22;6483;51.310;4.462;2023-04-25T15:36:31;19.30;1.00
12833;DHT22;6483;51.310;4.462;2023-04-25T15:38:57;18.50;1.00
12833;DHT22;6483;51.310;4.462;2023-04-25T15:41:23;18.30;1.00
12833;DHT22;6483;51.310;4.462;2023-04-25T15:43:53;18.00;1.00
12833;DHT22;6483;51.310;4.462;2023-04-25T15:46:19;18.00;1.00
12833;DHT22;6483;51.310;4.462;2023-04-25T15:48:46;17.70;1.00
12833;DHT22;6483;51.310;4.462;2023-04-25T15:51:12;18.00;1.00
12833;DHT22;6483;51.310;4.462;2023-04-25T15:53:38;18.10;1.00
12833;DHT22;6483;51.310;4.462;2023-04-25T15:56:06;18.50;1.00
12833;DHT22;6483;51.310;4.462;2023-04-25T15:58:32;19.30;1.00
12833;DHT22;6483;51.310;4.462;2023-04-25T16:01:00;18.90;1.00
12833;DHT22;6483;51.310;4.462;2023-04-25T16:03:26;18.50;1.00
12833;DHT22;6483;51.310;4.462;2023-04-25T16:05:54;18.20;1.00
12833;DHT22;6483;51.310;4.462;2023-04-25T16:08:24;18.20;1.00
12833;DHT22;6483;51.310;4.462;2023-04-25T16:10:50;18.10;1.00
12833;DHT22;6483;51.310;4.462;2023-04-25T16:13:16;16.70;1.00